WMKJWMKM

Guest
Details From WMKJ - Senai Intl - Sultan Ismail
To WMKM - Malacca
Flight Number -
Tags decoded
Created
Modified
Stats Distance 93 nm / 173 km
Max Altitude 0 ft / 0 m
Waypoints 4
Social Downloads 0
Likes 0
Share

Download

Looking for another format? Having issues loading an existing format? Contact us
Advertisement - Login to hide

Notes

Requested: WMKJ MASBO GUPTA WMKM

Route

WMKJ MASBO GUPTA WMKM

ID Type Via Altitude (ft/m) Position (lat/lon) Dist (leg/tot) Name
O WMKJ APT - 0 / 0 1.64056 / 103.67000 - / 0 nm Senai Intl - Sultan Ismail
MASBO FIX - 0 / 0 2.04664 / 102.88100 53 / 53 nm
GUPTA FIX - 0 / 0 2.16333 / 102.64200 15 / 69 nm
O WMKM APT - 0 / 0 2.26336 / 102.25200 24 / 93 nm Malacca

Altitude Profile

Advertisement - Login to hide

WMKJ

Details ICAO WMKJ (JHB)
Name Senai Intl - Sultan Ismail
Region Malaysia (Peninsular Malaysia)
Timezone Asia/Kuala_Lumpur (UTC+8.0)
Stats Elevation 133 ft / 41 m (AMSL)
Location 1.640560° 103.670000°
Runways 1
Magnetic Variation 0.181° E

METAR

WMKJ 180500Z VRB03KT 9999 FEW017CB SCT018 31/26 Q1009

Decode

TAF

TAF WMKJ 172300Z 1800/1900 VRB02KT 9999 FEW018 TEMPO 1805/1810 15006KT 3000 +TSRA FEW016CB SCT018

Decode

Departure Runways

ID Width Length Bearing (true/mag) Surface Threshold Overrun Markings Lighting
16 150 ft / 46 m 12,602 ft / 3,841 m 160.01° / 159.83° ASPHALT 0 ft / 0 m 0 ft / 0 m PREC-APP CENTERLINE EDGE THRESHOLD
34 150 ft / 46 m 12,602 ft / 3,841 m 340.01° / 339.83° ASPHALT 0 ft / 0 m 0 ft / 0 m PREC-APP CENTERLINE EDGE THRESHOLD

WMKM

Details ICAO WMKM (MKZ)
Name Malacca
Region Malaysia (Peninsular Malaysia)
Timezone Asia/Kuala_Lumpur (UTC+8.0)
Stats Elevation 35 ft / 11 m (AMSL)
Location 2.265540° 102.253000°
Runways 1
Magnetic Variation 0.090° E

METAR

WMKM 180500Z VRB05KT 9999 FEW017CB SCT020 32/24 Q1009

Decode

TAF

TAF WMKM 172300Z 1800/1900 VRB02KT 9999 FEW018 TEMPO 1803/1807 16006KT 4000 TSRA FEW017CB SCT018

Decode

Destination Runways

ID Width Length Bearing (true/mag) Surface Threshold Overrun Markings Lighting
03 150 ft / 46 m 7,037 ft / 2,145 m 29.94° / 29.85° ASPHALT 0 ft / 0 m 0 ft / 0 m PREC-APP CENTERLINE EDGE THRESHOLD
21 150 ft / 46 m 7,037 ft / 2,145 m 209.94° / 209.85° ASPHALT 0 ft / 0 m 0 ft / 0 m PREC-APP CENTERLINE EDGE THRESHOLD

Approach Navaids

Runway Type Ident Frequency Range Bearing (true/mag) Slope Elevation
03 GS IKKM 111.70 MHz 10 nm / 19 km 29.95° / 29.86 ° 3.00° 35 ft / 11 m (AMSL)
03 LOC-ILS IKKM 111.70 MHz 18 nm / 33 km 29.95° / 29.86 ° - 35 ft / 11 m (AMSL)

Popular Alternatives